createdAt,value
2022-09-15T00:01:21.641Z,100047.66
2022-09-15T00:03:49.911Z,100054.78
2022-09-15T00:06:18.315Z,100047.13
2022-09-15T00:08:46.230Z,100055.72
2022-09-15T00:11:26.183Z,100057.94
2022-09-15T00:13:55.593Z,100038.09
2022-09-15T00:16:25.707Z,100053.56
2022-09-15T00:18:53.812Z,100053.03
2022-09-15T00:21:23.810Z,100055.41
2022-09-15T00:23:52.328Z,100041.88
2022-09-15T00:26:23.161Z,100039.91
2022-09-15T00:28:51.888Z,100048.22
2022-09-15T00:31:22.824Z,100050.25
2022-09-15T00:33:53.291Z,100048.19
2022-09-15T00:36:22.641Z,100040.94
2022-09-15T00:38:50.729Z,100042.81
2022-09-15T00:41:20.760Z,100034.34
2022-09-15T00:43:53.661Z,100045.63
2022-09-15T00:46:24.749Z,100047.94
2022-09-15T00:49:19.073Z,100048.78
2022-09-15T00:51:49.653Z,100050.44
2022-09-15T00:54:25.207Z,100042.50
2022-09-15T00:56:55.385Z,100050.34
2022-09-15T00:59:26.224Z,100054.22
2022-09-15T01:02:08.245Z,100060.50
2022-09-15T01:04:36.088Z,100039.81
2022-09-15T01:07:06.683Z,100043.72
2022-09-15T01:09:41.940Z,100042.59
2022-09-15T01:12:09.744Z,100041.84
2022-09-15T01:14:37.543Z,100034.25
2022-09-15T01:17:29.973Z,100031.81
2022-09-15T01:20:20.360Z,100015.59
2022-09-15T01:23:13.819Z,100014.69
2022-09-15T01:25:44.183Z,100008.25
2022-09-15T01:28:25.619Z,100005.19
2022-09-15T01:31:29.693Z,100011.50
2022-09-15T01:34:09.047Z,100014.97
2022-09-15T01:36:45.766Z,100007.84
2022-09-15T01:39:32.078Z,100015.88
2022-09-15T01:42:04.137Z,100019.22
2022-09-15T01:44:37.928Z,100024.19
2022-09-15T01:47:11.829Z,100031.59
2022-09-15T01:50:06.298Z,100035.59
2022-09-15T01:52:34.326Z,100042.34
2022-09-15T01:55:08.036Z,100041.53
2022-09-15T01:57:35.847Z,100037.00
2022-09-15T02:00:04.427Z,100039.34
2022-09-15T02:02:38.219Z,100036.78
2022-09-15T02:05:16.754Z,100024.09
2022-09-15T02:08:05.549Z,100023.38
2022-09-15T02:11:03.598Z,100012.22
2022-09-15T02:13:41.546Z,100013.22
2022-09-15T02:16:20.113Z,100004.84
2022-09-15T02:19:19.821Z,100005.34
2022-09-15T02:22:17.966Z,100000.19
2022-09-15T02:24:50.632Z,99996.97
2022-09-15T02:27:35.714Z,99994.59
2022-09-15T02:30:12.711Z,99989.69
2022-09-15T02:32:57.221Z,99977.16
2022-09-15T02:35:27.199Z,99965.31
2022-09-15T02:37:56.424Z,99959.28
2022-09-15T02:40:24.438Z,99959.28
2022-09-15T02:42:55.284Z,99946.97
2022-09-15T02:45:24.903Z,99939.09
2022-09-15T02:47:52.738Z,99936.72
2022-09-15T02:50:20.816Z,99936.72
2022-09-15T02:52:48.533Z,99931.59
2022-09-15T02:55:16.805Z,99917.63
2022-09-15T02:57:44.583Z,99905.59
2022-09-15T03:00:13.652Z,99895.88
2022-09-15T03:03:11.359Z,99880.66
2022-09-15T03:05:45.805Z,99871.13
2022-09-15T03:08:14.216Z,99866.00
2022-09-15T03:10:41.939Z,99866.75
2022-09-15T03:13:09.691Z,99869.38
2022-09-15T03:15:37.532Z,99893.59
2022-09-15T03:18:05.671Z,99883.59
2022-09-15T03:20:33.966Z,99878.84
2022-09-15T03:23:03.498Z,99875.16
2022-09-15T03:25:32.489Z,99867.97
2022-09-15T03:28:00.301Z,99854.09
2022-09-15T03:30:28.171Z,99859.63
2022-09-15T03:32:55.856Z,99853.63
2022-09-15T03:35:23.578Z,99850.13
2022-09-15T03:37:51.361Z,99841.38
2022-09-15T03:40:19.183Z,99844.13
2022-09-15T03:42:47.709Z,99835.81
2022-09-15T03:45:15.582Z,99833.00
2022-09-15T03:47:43.350Z,99839.19
2022-09-15T03:50:11.129Z,99837.34
2022-09-15T03:52:38.823Z,99836.13
2022-09-15T03:55:07.063Z,99846.44
2022-09-15T03:57:34.880Z,99861.72
2022-09-15T04:00:04.840Z,99873.56
2022-09-15T04:02:33.134Z,99865.47
2022-09-15T04:05:00.893Z,99877.88
2022-09-15T04:07:28.572Z,99872.38
2022-09-15T04:09:56.724Z,99872.78
2022-09-15T04:12:24.623Z,99876.41
2022-09-15T04:14:52.410Z,99868.09
2022-09-15T04:17:20.282Z,99862.53
2022-09-15T04:19:48.021Z,99866.94
2022-09-15T04:22:18.000Z,99865.03
2022-09-15T04:24:48.172Z,99865.81
2022-09-15T04:27:17.472Z,99870.94
2022-09-15T04:29:45.371Z,99867.41
2022-09-15T04:32:13.212Z,99876.16
2022-09-15T04:34:41.688Z,99891.75
2022-09-15T04:37:09.464Z,99898.44
2022-09-15T04:39:37.176Z,99893.25
2022-09-15T04:42:08.009Z,99885.44
2022-09-15T04:44:35.804Z,99880.16
2022-09-15T04:47:03.662Z,99880.66
2022-09-15T04:49:31.868Z,99892.59
2022-09-15T04:51:59.838Z,99889.75
2022-09-15T04:54:27.825Z,99893.03
2022-09-15T04:56:55.633Z,99912.16
2022-09-15T04:59:24.066Z,99915.38
2022-09-15T05:01:54.741Z,99932.19
2022-09-15T05:04:22.620Z,99921.72
2022-09-15T05:06:50.413Z,99928.78
2022-09-15T05:09:18.243Z,99936.63
2022-09-15T05:11:46.024Z,99938.47
2022-09-15T05:14:13.785Z,99937.69
2022-09-15T05:16:41.615Z,99941.75
2022-09-15T05:19:10.708Z,99954.13
2022-09-15T05:21:38.703Z,99961.59
2022-09-15T05:24:06.815Z,99956.88
2022-09-15T05:26:34.576Z,99964.47
2022-09-15T05:29:02.408Z,99970.03
2022-09-15T05:31:32.439Z,99975.63
2022-09-15T05:34:02.878Z,99993.16
2022-09-15T05:36:31.059Z,99992.88
2022-09-15T05:38:59.306Z,99993.88
2022-09-15T05:41:28.534Z,99989.59
2022-09-15T05:43:58.405Z,99987.78
2022-09-15T05:46:27.559Z,99984.78
2022-09-15T05:48:59.146Z,99974.31
2022-09-15T05:51:27.207Z,99975.63
2022-09-15T05:53:54.966Z,99971.19
2022-09-15T05:56:22.745Z,99974.50
2022-09-15T05:58:51.060Z,99980.59
2022-09-15T06:01:21.241Z,99979.03
2022-09-15T06:03:49.896Z,99979.75
2022-09-15T06:06:18.119Z,99968.19
2022-09-15T06:08:51.900Z,99980.97
2022-09-15T06:11:25.801Z,99986.53
2022-09-15T06:13:53.548Z,99989.81
2022-09-15T06:16:23.254Z,99990.47
2022-09-15T06:18:52.833Z,99992.13
2022-09-15T06:21:23.663Z,99997.41
2022-09-15T06:23:56.710Z,99996.72
2022-09-15T06:26:25.589Z,99996.34
2022-09-15T06:28:58.743Z,99993.91
2022-09-15T06:31:28.587Z,99995.47
2022-09-15T06:33:57.897Z,99999.97
2022-09-15T06:36:30.778Z,100003.19
2022-09-15T06:38:59.744Z,99997.78
2022-09-15T06:41:38.291Z,100011.00
2022-09-15T06:44:19.635Z,100011.50
2022-09-15T06:46:47.645Z,100019.06
2022-09-15T06:49:15.881Z,100018.16
2022-09-15T06:51:43.676Z,100005.00
2022-09-15T06:54:12.053Z,100012.22
2022-09-15T06:56:39.967Z,100024.59
2022-09-15T06:59:10.223Z,100032.34
2022-09-15T07:01:38.072Z,100019.19
2022-09-15T07:04:10.128Z,100012.41
2022-09-15T07:06:39.662Z,100008.47
2022-09-15T07:09:08.122Z,100019.19
2022-09-15T07:11:35.895Z,100025.63
2022-09-15T07:14:04.146Z,100028.00
2022-09-15T07:16:32.116Z,100026.47
2022-09-15T07:19:02.111Z,100015.69
2022-09-15T07:21:29.912Z,100025.19
2022-09-15T07:23:58.378Z,100020.44
2022-09-15T07:26:30.535Z,100012.44
2022-09-15T07:29:01.153Z,100013.25
2022-09-15T07:31:31.354Z,100015.66
2022-09-15T07:33:59.852Z,100008.44
2022-09-15T07:36:28.760Z,99998.75
2022-09-15T07:38:57.033Z,100002.44
2022-09-15T07:41:27.372Z,99990.47
2022-09-15T07:43:57.699Z,99998.09
2022-09-15T07:46:27.661Z,99994.13
2022-09-15T07:48:58.719Z,99989.75
2022-09-15T07:51:27.020Z,99985.72
2022-09-15T07:53:55.239Z,99986.16
2022-09-15T07:56:24.761Z,99988.16
2022-09-15T07:58:52.934Z,99976.13
2022-09-15T08:01:22.634Z,99983.75
2022-09-15T08:03:52.369Z,99994.16
2022-09-15T08:06:25.990Z,99983.75
2022-09-15T08:08:59.280Z,99979.31
2022-09-15T08:11:29.292Z,99989.75
2022-09-15T08:14:00.497Z,99995.72
2022-09-15T08:16:31.040Z,99991.34
2022-09-15T08:18:59.281Z,99986.94
2022-09-15T08:21:28.444Z,99991.72
2022-09-15T08:23:58.701Z,99978.13
2022-09-15T08:26:27.984Z,99982.84
2022-09-15T08:28:55.802Z,99982.88
2022-09-15T08:31:26.622Z,99979.63
2022-09-15T08:33:56.160Z,99987.59
2022-09-15T08:36:28.663Z,99972.34
2022-09-15T08:38:56.852Z,99969.88
2022-09-15T08:41:38.430Z,99970.63
2022-09-15T08:44:24.053Z,99969.84
2022-09-15T08:46:59.123Z,99964.22
2022-09-15T08:49:51.562Z,99960.09
2022-09-15T08:52:27.012Z,99965.69
2022-09-15T08:54:57.938Z,99966.47
2022-09-15T08:57:26.291Z,99957.31
2022-09-15T08:59:54.930Z,99957.25
2022-09-15T09:02:37.957Z,99953.53
2022-09-15T09:05:29.905Z,99938.72
2022-09-15T09:08:20.865Z,99945.38
2022-09-15T09:11:10.049Z,99952.56
2022-09-15T09:14:20.530Z,99938.09
2022-09-15T09:17:11.297Z,99941.94
2022-09-15T09:20:05.156Z,99937.94
2022-09-15T09:22:37.756Z,99937.72
2022-09-15T09:25:26.086Z,99925.53
2022-09-15T09:27:58.449Z,99931.84
2022-09-15T09:30:31.335Z,99924.59
2022-09-15T09:33:30.445Z,99920.59
2022-09-15T09:36:00.318Z,99925.91
2022-09-15T09:38:35.546Z,99912.19
2022-09-15T09:41:09.329Z,99908.31
2022-09-15T09:43:37.194Z,99905.75
2022-09-15T09:46:15.192Z,99894.44
2022-09-15T09:49:03.295Z,99898.47
2022-09-15T09:51:34.585Z,99894.44
2022-09-15T09:54:11.924Z,99880.28
2022-09-15T09:56:40.529Z,99887.91
2022-09-15T09:59:30.791Z,99877.88
2022-09-15T10:02:18.378Z,99880.25
2022-09-15T10:04:53.238Z,99870.28
2022-09-15T10:07:27.111Z,99874.16
2022-09-15T10:09:58.515Z,99867.03
2022-09-15T10:12:49.026Z,99869.78
2022-09-15T10:15:28.559Z,99862.28
2022-09-15T10:17:57.293Z,99860.44
2022-09-15T10:20:25.837Z,99866.75
2022-09-15T10:23:03.124Z,99870.50
2022-09-15T10:25:55.018Z,99864.78
2022-09-15T10:28:24.262Z,99869.44
2022-09-15T10:30:59.410Z,99866.31
2022-09-15T10:33:35.271Z,99872.69
2022-09-15T10:36:19.854Z,99867.88
2022-09-15T10:39:15.560Z,99853.47
2022-09-15T10:42:04.610Z,99851.00
2022-09-15T10:45:04.572Z,99842.00
2022-09-15T10:47:50.533Z,99835.50
2022-09-15T10:50:31.365Z,99833.16
2022-09-15T10:53:34.051Z,99814.66
2022-09-15T10:56:34.707Z,99817.31
2022-09-15T10:59:05.467Z,99809.13
2022-09-15T11:01:49.581Z,99802.84
2022-09-15T11:04:33.565Z,99800.84
2022-09-15T11:07:29.124Z,99802.53
2022-09-15T11:10:29.556Z,99798.47
2022-09-15T11:13:26.050Z,99796.78
2022-09-15T11:16:25.720Z,99794.03
2022-09-15T11:19:34.248Z,99782.59
2022-09-15T11:22:29.555Z,99799.53
2022-09-15T11:25:13.711Z,99806.59
2022-09-15T11:27:54.692Z,99800.84
2022-09-15T11:30:25.745Z,99808.69
2022-09-15T11:32:59.858Z,99793.34
2022-09-15T11:35:46.021Z,99789.31
2022-09-15T11:38:43.234Z,99791.75
2022-09-15T11:41:20.196Z,99790.69
2022-09-15T11:44:16.055Z,99789.28
2022-09-15T11:47:09.811Z,99786.28
2022-09-15T11:49:54.895Z,99786.41
2022-09-15T11:53:00.923Z,99772.91
2022-09-15T11:55:37.739Z,99772.91
2022-09-15T11:58:26.451Z,99776.66
2022-09-15T12:01:09.365Z,99758.25
2022-09-15T12:03:42.832Z,99761.47
2022-09-15T12:07:03.460Z,99762.00
2022-09-15T12:09:34.340Z,99749.59
2022-09-15T12:12:12.721Z,99758.16
2022-09-15T12:14:48.663Z,99763.00
2022-09-15T12:17:40.905Z,99771.13
2022-09-15T12:20:35.407Z,99769.56
2022-09-15T12:23:12.873Z,99773.31
2022-09-15T12:26:10.775Z,99761.56
2022-09-15T12:28:43.504Z,99768.50
2022-09-15T12:31:34.676Z,99781.53
2022-09-15T12:34:38.601Z,99770.78
2022-09-15T12:37:15.356Z,99784.47
2022-09-15T12:39:45.389Z,99769.44
2022-09-15T12:42:20.940Z,99764.41
2022-09-15T12:45:22.794Z,99773.94
2022-09-15T12:48:05.404Z,99770.78
2022-09-15T12:50:37.588Z,99775.06
2022-09-15T12:53:22.248Z,99772.34
2022-09-15T12:55:57.534Z,99766.34
2022-09-15T12:58:37.096Z,99776.75
2022-09-15T13:01:23.018Z,99773.28
2022-09-15T13:03:58.478Z,99769.44
2022-09-15T13:06:35.912Z,99760.13
2022-09-15T13:09:06.527Z,99760.59
2022-09-15T13:11:35.003Z,99750.38
2022-09-15T13:14:07.063Z,99749.44
2022-09-15T13:16:37.884Z,99754.75
2022-09-15T13:19:33.804Z,99751.97
2022-09-15T13:22:27.494Z,99745.72
2022-09-15T13:25:04.565Z,99739.78
2022-09-15T13:27:42.919Z,99736.47
2022-09-15T13:30:25.521Z,99737.56
2022-09-15T13:33:06.805Z,99737.81
2022-09-15T13:36:00.765Z,99742.53
2022-09-15T13:38:54.345Z,99732.47
2022-09-15T13:41:56.999Z,99737.03
2022-09-15T13:45:03.244Z,99732.34
2022-09-15T13:47:53.070Z,99717.63
2022-09-15T13:50:33.430Z,99718.81
2022-09-15T13:53:20.877Z,99709.97
2022-09-15T13:55:49.058Z,99695.59
2022-09-15T14:01:11.691Z,99697.47
2022-09-15T14:03:45.769Z,99701.69
2022-09-15T14:06:21.110Z,99690.69
2022-09-15T14:08:54.144Z,99685.13
2022-09-15T14:11:34.940Z,99678.03
2022-09-15T14:14:06.267Z,99670.19
2022-09-15T14:16:39.607Z,99676.66
2022-09-15T14:19:41.745Z,99682.09
2022-09-15T14:22:35.945Z,99678.00
2022-09-15T14:25:14.564Z,99675.44
2022-09-15T14:27:45.799Z,99679.22
2022-09-15T14:30:26.515Z,99681.91
2022-09-15T14:33:00.489Z,99685.28
2022-09-15T14:35:38.389Z,99679.97
2022-09-15T14:38:06.383Z,99668.63
2022-09-15T14:40:42.361Z,99673.34
2022-09-15T14:43:36.354Z,99675.78
2022-09-15T14:46:18.123Z,99679.97
2022-09-15T14:48:48.848Z,99681.72
2022-09-15T14:51:28.668Z,99686.00
2022-09-15T14:54:00.406Z,99674.19
2022-09-15T14:56:44.163Z,99665.38
2022-09-15T14:59:26.546Z,99687.38
2022-09-15T15:02:16.329Z,99676.69
2022-09-15T15:04:54.959Z,99665.03
2022-09-15T15:07:33.349Z,99662.16
2022-09-15T15:10:04.562Z,99644.88
2022-09-15T15:12:36.671Z,99650.53
2022-09-15T15:15:21.167Z,99642.50
2022-09-15T15:17:55.364Z,99645.19
2022-09-15T15:20:31.478Z,99637.09
2022-09-15T15:23:24.966Z,99647.81
2022-09-15T15:26:15.664Z,99631.84
2022-09-15T15:28:46.257Z,99631.88
2022-09-15T15:31:22.771Z,99617.31
2022-09-15T15:34:06.601Z,99618.22
2022-09-15T15:36:37.987Z,99609.03
2022-09-15T15:39:23.145Z,99614.84
2022-09-15T15:42:08.510Z,99604.91
2022-09-15T15:44:40.280Z,99608.66
2022-09-15T15:47:14.834Z,99598.25
2022-09-15T15:50:09.369Z,99596.47
2022-09-15T15:52:36.106Z,99593.13
2022-09-15T15:55:07.121Z,99594.38
2022-09-15T15:57:40.031Z,99601.06
2022-09-15T16:00:24.452Z,99588.00
2022-09-15T16:02:55.551Z,99590.69
2022-09-15T16:05:30.739Z,99594.50
2022-09-15T16:08:19.807Z,99590.03
2022-09-15T16:10:52.860Z,99594.75
2022-09-15T16:13:26.390Z,99587.44
2022-09-15T16:15:58.835Z,99595.91
2022-09-15T16:18:30.933Z,99586.84
2022-09-15T16:21:07.570Z,99588.06
2022-09-15T16:23:39.099Z,99585.84
2022-09-15T16:26:14.681Z,99588.94
2022-09-15T16:28:45.332Z,99590.03
2022-09-15T16:31:17.066Z,99581.88
2022-09-15T16:33:47.833Z,99586.50
2022-09-15T16:36:20.519Z,99580.28
2022-09-15T16:38:52.531Z,99589.91
2022-09-15T16:41:29.374Z,99588.72
2022-09-15T16:44:00.184Z,99579.28
2022-09-15T16:46:31.064Z,99584.59
2022-09-15T16:49:01.673Z,99578.31
2022-09-15T16:51:39.511Z,99577.38
2022-09-15T16:54:21.282Z,99574.81
2022-09-15T16:56:53.950Z,99581.59
2022-09-15T16:59:33.271Z,99580.66
2022-09-15T17:02:04.205Z,99574.13
2022-09-15T17:04:36.566Z,99576.25
2022-09-15T17:07:08.820Z,99573.22
2022-09-15T17:09:59.242Z,99575.72
2022-09-15T17:12:34.246Z,99558.56
2022-09-15T17:15:02.329Z,99562.16
2022-09-15T17:17:33.807Z,99558.13
2022-09-15T17:20:04.644Z,99553.84
2022-09-15T17:22:32.772Z,99561.31
2022-09-15T17:25:01.400Z,99562.69
2022-09-15T17:27:29.916Z,99564.31
2022-09-15T17:29:57.930Z,99564.00
2022-09-15T17:32:25.903Z,99577.03
2022-09-15T17:34:54.516Z,99561.38
2022-09-15T17:37:22.947Z,99575.38
2022-09-15T17:39:52.743Z,99567.72
2022-09-15T17:42:23.614Z,99567.84
2022-09-15T17:44:51.544Z,99576.28
2022-09-15T17:47:19.483Z,99575.88
2022-09-15T17:49:47.311Z,99568.88
2022-09-15T17:52:15.172Z,99584.97
2022-09-15T17:54:43.312Z,99577.59
2022-09-15T17:57:11.262Z,99585.50
2022-09-15T17:59:39.250Z,99590.59
2022-09-15T18:02:18.053Z,99589.19
2022-09-15T18:04:46.649Z,99599.53
2022-09-15T18:07:15.705Z,99595.34
2022-09-15T18:09:48.656Z,99604.31
2022-09-15T18:12:18.347Z,99609.16
2022-09-15T18:14:46.417Z,99607.50
2022-09-15T18:17:14.809Z,99612.56
2022-09-15T18:19:42.867Z,99603.59
2022-09-15T18:22:14.359Z,99608.56
2022-09-15T18:24:42.385Z,99614.19
2022-09-15T18:27:14.791Z,99626.44
2022-09-15T18:29:42.835Z,99620.34
2022-09-15T18:32:11.719Z,99630.75
2022-09-15T18:34:42.384Z,99628.34
2022-09-15T18:37:10.315Z,99639.59
2022-09-15T18:39:40.513Z,99652.00
2022-09-15T18:42:08.371Z,99643.19
2022-09-15T18:44:36.289Z,99646.66
2022-09-15T18:47:04.120Z,99643.91
2022-09-15T18:49:31.974Z,99640.81
2022-09-15T18:52:02.401Z,99635.19
2022-09-15T18:54:30.325Z,99646.00
2022-09-15T18:56:58.365Z,99640.38
2022-09-15T18:59:26.406Z,99634.81
2022-09-15T19:01:54.479Z,99644.13
2022-09-15T19:04:28.409Z,99636.00
2022-09-15T19:06:59.807Z,99635.41
2022-09-15T19:09:27.674Z,99641.34
2022-09-15T19:11:55.706Z,99642.25
2022-09-15T19:14:23.630Z,99646.13
2022-09-15T19:16:57.997Z,99648.63
2022-09-15T19:19:26.760Z,99657.66
2022-09-15T19:21:54.597Z,99665.06
2022-09-15T19:24:32.060Z,99668.56
2022-09-15T19:27:04.814Z,99666.84
2022-09-15T19:29:36.264Z,99671.53
2022-09-15T19:32:11.181Z,99673.44
2022-09-15T19:34:42.500Z,99665.75
2022-09-15T19:37:18.807Z,99681.22
2022-09-15T19:39:52.287Z,99675.13
2022-09-15T19:42:22.294Z,99686.63
2022-09-15T19:44:51.398Z,99677.38
2022-09-15T19:47:20.004Z,99673.09
2022-09-15T19:49:55.834Z,99697.69
2022-09-15T19:52:28.788Z,99695.16
2022-09-15T19:54:56.987Z,99691.31
2022-09-15T19:57:24.996Z,99687.94
2022-09-15T19:59:52.917Z,99678.97
2022-09-15T20:02:20.897Z,99684.47
2022-09-15T20:04:50.424Z,99687.88
2022-09-15T20:07:18.288Z,99686.53
2022-09-15T20:09:47.627Z,99685.31
2022-09-15T20:12:16.440Z,99681.88
2022-09-15T20:14:44.383Z,99684.53
2022-09-15T20:17:12.534Z,99674.56
2022-09-15T20:19:42.857Z,99690.22
2022-09-15T20:22:10.749Z,99695.19
2022-09-15T20:24:38.876Z,99696.19
2022-09-15T20:27:09.001Z,99684.25
2022-09-15T20:29:37.082Z,99678.31
2022-09-15T20:32:05.204Z,99693.41
2022-09-15T20:34:33.233Z,99691.91
2022-09-15T20:37:03.222Z,99690.25
2022-09-15T20:39:31.122Z,99684.84
2022-09-15T20:42:00.884Z,99694.78
2022-09-15T20:44:31.068Z,99698.94
2022-09-15T20:46:59.563Z,99698.41
2022-09-15T20:49:27.362Z,99689.69
2022-09-15T20:51:55.184Z,99695.34
2022-09-15T20:54:23.066Z,99698.19
2022-09-15T20:56:50.913Z,99692.22
2022-09-15T20:59:18.849Z,99688.25
2022-09-15T21:01:46.890Z,99695.50
2022-09-15T21:04:15.073Z,99699.97
2022-09-15T21:06:45.541Z,99698.78
2022-09-15T21:09:14.219Z,99694.38
2022-09-15T21:11:43.553Z,99698.78
2022-09-15T21:14:15.343Z,99702.34
2022-09-15T21:16:43.293Z,99700.41
2022-09-15T21:19:12.722Z,99702.44
2022-09-15T21:21:41.780Z,99697.22
2022-09-15T21:24:10.780Z,99711.69
2022-09-15T21:27:02.123Z,99708.06
2022-09-15T21:29:48.621Z,99709.66
2022-09-15T21:32:25.988Z,99707.69
2022-09-15T21:34:56.371Z,99706.50
2022-09-15T21:37:27.265Z,99707.28
2022-09-15T21:39:55.277Z,99710.09
2022-09-15T21:42:23.332Z,99720.50
2022-09-15T21:44:52.346Z,99711.28
2022-09-15T21:47:20.272Z,99705.69
2022-09-15T21:49:48.245Z,99703.66
2022-09-15T21:52:16.058Z,99706.06
2022-09-15T21:54:44.082Z,99709.31
2022-09-15T21:57:11.927Z,99709.31
2022-09-15T21:59:39.965Z,99700.88
2022-09-15T22:02:07.973Z,99701.25
2022-09-15T22:04:35.873Z,99704.44
2022-09-15T22:07:04.571Z,99701.25
2022-09-15T22:09:32.985Z,99701.31
2022-09-15T22:12:01.032Z,99706.09
2022-09-15T22:14:28.870Z,99700.47
2022-09-15T22:16:56.656Z,99698.88
2022-09-15T22:19:24.524Z,99701.31
2022-09-15T22:21:52.350Z,99706.50
2022-09-15T22:24:20.505Z,99716.50
2022-09-15T22:26:48.288Z,99707.63
2022-09-15T22:29:16.135Z,99704.06
2022-09-15T22:31:44.116Z,99702.84
2022-09-15T22:34:12.049Z,99708.00
2022-09-15T22:36:40.139Z,99698.81
2022-09-15T22:39:07.940Z,99700.44
2022-09-15T22:41:38.427Z,99700.81
2022-09-15T22:44:16.311Z,99704.81
2022-09-15T22:46:44.226Z,99698.38
2022-09-15T22:49:12.136Z,99709.94
2022-09-15T22:51:39.968Z,99705.94
2022-09-15T22:54:07.869Z,99698.38
2022-09-15T22:56:35.800Z,99705.19
2022-09-15T22:59:03.619Z,99698.78
2022-09-15T23:01:31.608Z,99705.97
2022-09-15T23:04:01.884Z,99705.97
2022-09-15T23:06:32.856Z,99705.09
2022-09-15T23:09:03.826Z,99706.69
2022-09-15T23:11:33.435Z,99700.31
2022-09-15T23:14:01.589Z,99707.09
2022-09-15T23:16:30.822Z,99707.06
2022-09-15T23:18:59.316Z,99701.88
2022-09-15T23:21:28.442Z,99703.47
2022-09-15T23:23:56.425Z,99699.47
2022-09-15T23:26:25.833Z,99698.66
2022-09-15T23:28:54.554Z,99690.72
2022-09-15T23:31:22.859Z,99693.13
2022-09-15T23:33:50.715Z,99701.97
2022-09-15T23:36:22.145Z,99698.41
2022-09-15T23:38:50.166Z,99704.31
2022-09-15T23:41:21.459Z,99697.09
2022-09-15T23:43:49.401Z,99701.91
2022-09-15T23:46:17.556Z,99699.47
2022-09-15T23:48:45.648Z,99691.81
2022-09-15T23:51:13.629Z,99697.38
2022-09-15T23:53:41.501Z,99700.16
2022-09-15T23:56:09.294Z,99695.38
2022-09-15T23:58:37.701Z,99695.78
